Time;durP1;ratioP1;P1;durP2;ratioP2;P2;SDS_P1;SDS_P2;PMS_P1;PMS_P2;Temp;Humidity;BMP_temperature;BMP_pressure;BME280_temperature;BME280_humidity;BME280_pressure;Samples;Min_cycle;Max_cycle;Signal;HPM_P1;HPM_P2
2023/10/18 00:01:49;;;;;;;3.37;1.10;;;;;;;3.01;100.00;101240.38;4992498;28;20418;-85
2023/10/18 00:04:23;;;;;;;3.85;1.13;;;;;;;3.12;100.00;101244.25;4991909;28;20422;-86
2023/10/18 00:06:54;;;;;;;3.28;1.10;;;;;;;3.13;100.00;101243.22;4990898;28;20422;-85
2023/10/18 00:09:45;;;;;;;3.78;1.20;;;;;;;3.24;100.00;101239.84;4990646;28;20419;-86
2023/10/18 00:12:20;;;;;;;3.75;1.25;;;;;;;3.30;100.00;101246.22;4998461;28;20445;-87
2023/10/18 00:14:54;;;;;;;5.90;1.37;;;;;;;3.16;100.00;101248.16;5007310;28;20783;-87
2023/10/18 00:17:22;;;;;;;3.33;1.20;;;;;;;3.16;100.00;101248.16;5007565;28;20510;-86
2023/10/18 00:19:50;;;;;;;5.53;1.40;;;;;;;3.11;100.00;101243.44;4991082;28;20431;-87
2023/10/18 00:22:20;;;;;;;5.38;1.50;;;;;;;3.12;100.00;101247.78;5007096;28;20422;-86
2023/10/18 00:24:48;;;;;;;5.30;1.30;;;;;;;3.01;100.00;101241.22;4991964;28;20441;-86
2023/10/18 00:27:16;;;;;;;3.50;1.33;;;;;;;3.00;100.00;101239.56;4978126;28;20427;-85
2023/10/18 00:29:44;;;;;;;4.95;1.20;;;;;;;2.90;100.00;101241.91;5003911;28;20434;-87
2023/10/18 00:32:18;;;;;;;3.67;1.27;;;;;;;2.87;100.00;101231.56;4983821;28;20936;-85
2023/10/18 00:34:46;;;;;;;3.72;1.40;;;;;;;2.79;100.00;101234.50;5003363;28;20418;-86
2023/10/18 00:37:22;;;;;;;3.65;1.20;;;;;;;2.62;100.00;101232.28;4991412;28;20422;-86
2023/10/18 00:39:51;;;;;;;4.07;1.10;;;;;;;2.33;100.00;101230.97;5005799;28;20501;-85
2023/10/18 00:42:27;;;;;;;4.50;1.20;;;;;;;2.40;100.00;101229.06;4992102;28;20449;-85
2023/10/18 00:45:02;;;;;;;1.98;0.98;;;;;;;2.41;100.00;101217.28;4989612;28;20430;-86
2023/10/18 00:47:31;;;;;;;4.70;1.42;;;;;;;2.37;100.00;101224.13;5006893;28;20415;-86
2023/10/18 00:50:06;;;;;;;4.10;1.20;;;;;;;2.42;100.00;101221.63;4989883;28;20430;-86
2023/10/18 00:52:42;;;;;;;3.85;1.20;;;;;;;2.46;100.00;101213.97;5005202;28;20430;-85
2023/10/18 00:55:11;;;;;;;4.47;1.23;;;;;;;2.39;100.00;101208.63;5001951;28;20463;-86
2023/10/18 00:57:44;;;;;;;4.15;1.30;;;;;;;2.36;100.00;101209.03;4989911;28;20435;-86
2023/10/18 01:00:24;;;;;;;3.45;1.30;;;;;;;2.39;100.00;101205.97;5006275;28;20429;-87
2023/10/18 01:02:59;;;;;;;3.33;1.48;;;;;;;2.34;100.00;101203.88;4984024;28;20426;-86
2023/10/18 01:05:32;;;;;;;4.38;1.50;;;;;;;2.30;100.00;101201.84;4991332;28;20430;-86
2023/10/18 01:08:10;;;;;;;4.05;1.40;;;;;;;2.25;100.00;101209.69;4991067;28;21302;-85
2023/10/18 01:10:44;;;;;;;3.65;1.40;;;;;;;2.27;100.00;101199.59;4995487;28;20424;-86
2023/10/18 01:13:12;;;;;;;5.93;1.40;;;;;;;2.20;100.00;101200.41;4984198;28;20429;-85
2023/10/18 01:15:45;;;;;;;5.82;1.60;;;;;;;1.99;100.00;101193.47;4989858;28;20426;-85
2023/10/18 01:18:14;;;;;;;5.10;1.30;;;;;;;1.97;100.00;101187.47;4990042;28;20427;-86
2023/10/18 01:20:45;;;;;;;3.78;1.58;;;;;;;2.01;100.00;101183.31;5000941;28;20434;-85
2023/10/18 01:23:15;;;;;;;3.83;1.40;;;;;;;1.92;100.00;101183.75;5006223;28;20430;-86
2023/10/18 01:25:45;;;;;;;4.90;1.50;;;;;;;2.04;100.00;101182.09;5002478;28;20433;-88
2023/10/18 01:28:13;;;;;;;4.65;1.80;;;;;;;2.06;100.00;101187.22;5004984;28;20422;-88
2023/10/18 01:30:42;;;;;;;4.35;1.55;;;;;;;1.97;100.00;101178.59;5005891;28;20441;-87
2023/10/18 01:33:13;;;;;;;4.28;1.60;;;;;;;2.01;100.00;101177.13;5005311;28;20434;-86
2023/10/18 01:35:50;;;;;;;4.68;1.50;;;;;;;1.97;100.00;101178.59;5005009;28;20418;-86
2023/10/18 01:38:23;;;;;;;4.13;1.60;;;;;;;2.00;100.00;101176.31;5006314;28;20430;-86
2023/10/18 01:40:54;;;;;;;3.40;1.60;;;;;;;2.07;100.00;101181.66;4998083;28;20849;-87
2023/10/18 01:43:28;;;;;;;5.38;1.65;;;;;;;2.15;100.00;101175.25;5015018;28;20415;-87
2023/10/18 01:45:57;;;;;;;3.63;1.60;;;;;;;2.13;100.00;101183.50;5003703;28;20764;-86
2023/10/18 01:48:27;;;;;;;4.60;1.75;;;;;;;2.15;100.00;101189.47;5006546;28;20426;-88
2023/10/18 01:51:01;;;;;;;7.20;1.70;;;;;;;2.12;100.00;101191.78;4979666;28;20455;-86
2023/10/18 01:53:29;;;;;;;8.43;1.92;;;;;;;2.08;100.00;101186.00;5005687;28;20422;-87
2023/10/18 01:56:04;;;;;;;5.28;1.45;;;;;;;2.01;100.00;101166.41;5007070;28;20437;-86
2023/10/18 01:58:38;;;;;;;5.35;1.70;;;;;;;2.06;100.00;101166.59;5009541;28;20423;-86
2023/10/18 02:01:13;;;;;;;4.07;1.65;;;;;;;2.08;100.00;101169.06;5010256;28;20421;-87
2023/10/18 02:03:44;;;;;;;8.02;2.08;;;;;;;1.97;100.00;101155.25;5009800;28;20414;-86
2023/10/18 02:06:14;;;;;;;3.63;1.50;;;;;;;2.04;100.00;101169.50;4986987;28;20445;-88
2023/10/18 02:08:48;;;;;;;4.45;1.67;;;;;;;2.09;100.00;101173.41;5008396;28;20431;-85
2023/10/18 02:11:18;;;;;;;7.13;2.30;;;;;;;1.98;100.00;101170.31;4993324;28;20426;-86
2023/10/18 02:13:47;;;;;;;5.03;1.80;;;;;;;2.10;100.00;101175.88;4993421;28;20430;-87
2023/10/18 02:16:20;;;;;;;3.97;1.70;;;;;;;2.14;100.00;101173.59;5009611;28;20902;-85
2023/10/18 02:18:49;;;;;;;4.50;2.08;;;;;;;1.99;100.00;101180.03;4993042;28;20426;-85
2023/10/18 02:21:23;;;;;;;3.78;1.60;;;;;;;2.01;100.00;101166.41;5008909;28;20423;-87
2023/10/18 02:23:52;;;;;;;5.40;1.90;;;;;;;2.06;100.00;101168.44;4995422;28;20433;-86
2023/10/18 02:26:33;;;;;;;4.47;1.98;;;;;;;1.96;100.00;101167.03;4994244;28;20457;-88
2023/10/18 02:29:05;;;;;;;6.60;2.15;;;;;;;1.99;100.00;101166.63;5009649;28;20403;-86
2023/10/18 02:31:33;;;;;;;3.80;1.90;;;;;;;2.04;100.00;101164.13;5008874;28;20434;-86
2023/10/18 02:34:04;;;;;;;5.97;1.95;;;;;;;1.96;100.00;101169.72;4994483;28;20815;-86
2023/10/18 02:36:38;;;;;;;5.43;2.10;;;;;;;1.95;100.00;101159.22;4986215;28;20775;-85
2023/10/18 02:39:08;;;;;;;4.72;2.00;;;;;;;2.00;100.00;101160.22;4989799;28;20434;-84
2023/10/18 02:41:39;;;;;;;4.20;1.92;;;;;;;2.04;100.00;101156.06;4992579;28;20430;-84
2023/10/18 02:44:10;;;;;;;4.20;2.15;;;;;;;2.02;100.00;101160.00;5005280;28;20430;-86
2023/10/18 02:46:38;;;;;;;7.38;2.30;;;;;;;1.96;100.00;101153.63;4990320;28;20427;-85
2023/10/18 02:49:08;;;;;;;6.87;2.23;;;;;;;1.87;100.00;101152.19;5008906;28;20475;-87
2023/10/18 02:51:43;;;;;;;5.28;2.17;;;;;;;1.93;100.00;101151.34;4994030;28;20760;-84
2023/10/18 02:54:16;;;;;;;5.00;2.10;;;;;;;1.85;100.00;101146.19;4994291;28;20425;-86
2023/10/18 02:56:51;;;;;;;7.43;2.40;;;;;;;1.77;100.00;101147.25;5008642;28;20426;-85
2023/10/18 02:59:20;;;;;;;7.05;2.63;;;;;;;1.81;100.00;101148.50;4974891;28;21167;-87
2023/10/18 03:01:50;;;;;;;7.70;3.83;;;;;;;1.86;100.00;101135.28;5008082;28;20437;-87
2023/10/18 03:04:26;;;;;;;9.70;4.23;;;;;;;1.72;100.00;101140.88;5008772;28;20414;-86
2023/10/18 03:06:55;;;;;;;11.43;4.47;;;;;;;1.72;100.00;101141.69;4986967;28;20418;-87
2023/10/18 03:09:27;;;;;;;11.68;4.45;;;;;;;1.69;100.00;101144.81;5008143;28;20425;-86
2023/10/18 03:11:57;;;;;;;10.70;4.82;;;;;;;1.69;100.00;101136.75;5006252;28;20893;-86
2023/10/18 03:14:39;;;;;;;10.75;4.95;;;;;;;1.68;100.00;101129.72;4992249;28;20930;-85
2023/10/18 03:17:19;;;;;;;8.63;4.80;;;;;;;1.65;100.00;101124.78;5008136;28;20418;-86
2023/10/18 03:19:56;;;;;;;11.93;5.20;;;;;;;1.68;100.00;101124.38;4993379;28;20422;-86
2023/10/18 03:22:26;;;;;;;10.65;5.40;;;;;;;1.74;100.00;101120.84;4991286;28;20423;-86
2023/10/18 03:24:55;;;;;;;9.82;5.28;;;;;;;1.82;100.00;101122.47;5006824;28;20414;-85
2023/10/18 03:27:32;;;;;;;12.25;5.80;;;;;;;1.86;100.00;101127.22;4998370;28;20422;-85
2023/10/18 03:30:17;;;;;;;14.15;5.80;;;;;;;1.86;100.00;101127.22;4993701;28;20426;-86
2023/10/18 03:32:51;;;;;;;10.43;5.37;;;;;;;1.81;100.00;101116.28;4991246;28;20445;-85
2023/10/18 03:35:25;;;;;;;12.57;5.53;;;;;;;1.86;100.00;101118.31;5004859;28;20438;-86
2023/10/18 03:38:03;;;;;;;11.40;5.40;;;;;;;1.79;100.00;101118.34;5008117;28;20418;-85
2023/10/18 03:40:36;;;;;;;8.43;4.75;;;;;;;1.81;100.00;101113.59;5000939;28;20449;-85
2023/10/18 03:43:09;;;;;;;11.35;5.20;;;;;;;1.77;100.00;101117.75;5007476;28;20441;-84
2023/10/18 03:46:07;;;;;;;12.10;5.22;;;;;;;1.75;100.00;101114.44;4981691;28;20416;-85
2023/10/18 03:48:39;;;;;;;9.57;5.20;;;;;;;1.72;100.00;101097.94;4977358;28;21009;-87
2023/10/18 03:51:08;;;;;;;9.40;5.20;;;;;;;1.70;100.00;101107.03;5008213;28;20906;-86
2023/10/18 03:53:38;;;;;;;13.10;5.32;;;;;;;1.66;100.00;101095.06;4990962;28;20415;-85
2023/10/18 03:56:09;;;;;;;10.07;4.90;;;;;;;1.67;100.00;101111.97;5008130;28;20422;-84
2023/10/18 03:58:42;;;;;;;9.57;4.83;;;;;;;1.63;100.00;101108.91;4995978;28;20752;-84
2023/10/18 04:01:21;;;;;;;9.27;4.80;;;;;;;1.53;100.00;101114.69;5008197;28;20429;-86
2023/10/18 04:03:56;;;;;;;10.37;4.90;;;;;;;1.65;100.00;101114.06;4990868;28;20824;-84
2023/10/18 04:06:28;;;;;;;11.05;5.03;;;;;;;1.68;100.00;101116.31;5005133;28;20409;-85
2023/10/18 04:09:13;;;;;;;12.60;5.10;;;;;;;1.68;100.00;101125.16;4993150;28;20426;-86
2023/10/18 04:11:41;;;;;;;10.50;4.50;;;;;;;1.63;100.00;101114.25;4986042;28;20433;-84
2023/10/18 04:14:16;;;;;;;9.57;4.25;;;;;;;1.55;100.00;101114.50;4992822;28;20728;-87
2023/10/18 04:16:47;;;;;;;11.45;4.30;;;;;;;1.60;100.00;101103.97;4991317;28;20974;-85
2023/10/18 04:19:19;;;;;;;9.18;4.25;;;;;;;1.64;100.00;101101.66;5007213;28;20423;-84
2023/10/18 04:21:53;;;;;;;9.57;4.35;;;;;;;1.61;100.00;101110.94;4990791;28;20434;-86
2023/10/18 04:24:23;;;;;;;7.53;4.10;;;;;;;1.64;100.00;101105.19;5007189;28;20482;-86
2023/10/18 04:26:57;;;;;;;10.68;4.40;;;;;;;1.65;100.00;101097.97;4987819;28;20449;-87
2023/10/18 04:29:33;;;;;;;8.60;4.38;;;;;;;1.62;100.00;101085.78;4983862;28;20429;-87
2023/10/18 04:32:06;;;;;;;10.23;5.13;;;;;;;1.67;100.00;101085.97;4992392;28;20410;-84
2023/10/18 04:34:34;;;;;;;9.05;4.32;;;;;;;1.65;100.00;101085.34;5000790;28;20449;-84
2023/10/18 04:37:12;;;;;;;9.32;4.05;;;;;;;1.62;100.00;101075.06;4988299;28;20426;-84
2023/10/18 04:39:41;;;;;;;9.85;4.47;;;;;;;1.60;100.00;101079.81;4991986;28;20414;-84
2023/10/18 04:42:16;;;;;;;10.75;4.55;;;;;;;1.57;100.00;101074.84;4982177;28;20875;-84
2023/10/18 04:44:49;;;;;;;11.03;4.50;;;;;;;1.58;100.00;101076.50;4985574;28;20969;-84
2023/10/18 04:47:31;;;;;;;9.50;4.25;;;;;;;1.55;100.00;101079.63;5007005;28;20423;-84
2023/10/18 04:50:04;;;;;;;8.73;3.85;;;;;;;1.45;100.00;101071.16;5001534;28;20426;-85
2023/10/18 04:52:40;;;;;;;10.50;4.65;;;;;;;1.44;100.00;101086.44;5006769;28;20433;-84
2023/10/18 04:55:13;;;;;;;9.50;4.47;;;;;;;1.44;100.00;101080.25;4988182;28;20425;-84
2023/10/18 04:57:41;;;;;;;8.98;4.47;;;;;;;1.44;100.00;101074.91;5006856;28;20422;-84
2023/10/18 05:00:24;;;;;;;8.65;3.92;;;;;;;1.43;100.00;101070.56;4989785;28;20430;-86
2023/10/18 05:02:58;;;;;;;8.70;4.23;;;;;;;1.44;100.00;101067.66;4998134;28;20447;-85
2023/10/18 05:05:27;;;;;;;8.73;3.90;;;;;;;1.42;100.00;101067.03;5003262;28;20423;-85
2023/10/18 05:08:01;;;;;;;11.00;4.35;;;;;;;1.31;100.00;101059.63;5004077;28;21427;-84
2023/10/18 05:10:34;;;;;;;9.80;4.22;;;;;;;1.42;100.00;101055.50;5003267;28;20427;-83
2023/10/18 05:13:11;;;;;;;10.90;4.07;;;;;;;1.42;100.00;101061.66;4989815;28;20450;-83
2023/10/18 05:15:42;;;;;;;9.93;3.70;;;;;;;1.31;100.00;101060.47;4993662;28;20426;-85
2023/10/18 05:18:16;;;;;;;9.63;3.63;;;;;;;1.30;100.00;101064.19;4987438;28;20426;-84
2023/10/18 05:20:55;;;;;;;8.52;3.72;;;;;;;1.31;100.00;101060.47;5004062;28;20910;-84
2023/10/18 05:23:24;;;;;;;8.27;3.70;;;;;;;1.35;100.00;101050.97;4999506;28;20416;-84
2023/10/18 05:26:08;;;;;;;10.60;3.90;;;;;;;1.34;100.00;101057.38;5001082;28;20420;-84
2023/10/18 05:28:47;;;;;;;9.38;3.60;;;;;;;1.29;100.00;101056.34;5004521;28;20430;-84
2023/10/18 05:34:22;;;;;;;8.23;4.03;;;;;;;1.45;100.00;101047.88;4984796;28;20434;-84
2023/10/18 05:36:56;;;;;;;10.40;4.47;;;;;;;1.49;100.00;101051.78;4992238;28;20430;-83
2023/10/18 05:39:33;;;;;;;11.25;5.00;;;;;;;1.48;100.00;101047.44;5010886;28;20422;-84
2023/10/18 05:42:03;;;;;;;10.43;5.53;;;;;;;1.50;100.00;101053.41;4996549;28;20435;-84
2023/10/18 05:44:32;;;;;;;12.32;5.85;;;;;;;1.56;100.00;101059.81;5010687;28;22752;-84
2023/10/18 05:47:08;;;;;;;11.73;6.32;;;;;;;1.57;100.00;101053.38;4994115;28;20422;-86
2023/10/18 05:49:41;;;;;;;9.95;5.57;;;;;;;1.57;100.00;101056.06;5014090;28;20430;-86
2023/10/18 05:52:36;;;;;;;13.50;6.97;;;;;;;1.58;100.00;101062.28;5008738;28;20433;-84
2023/10/18 05:55:08;;;;;;;14.02;8.10;;;;;;;1.59;100.00;101056.69;4988063;28;20440;-83
2023/10/18 05:57:42;;;;;;;18.50;10.85;;;;;;;1.63;100.00;101051.72;4994265;28;20444;-84
2023/10/18 06:00:17;;;;;;;17.90;9.35;;;;;;;1.66;100.00;101048.63;4991627;28;20429;-84
2023/10/18 06:02:47;;;;;;;15.27;8.57;;;;;;;1.62;100.00;101058.94;4991379;28;20423;-84
2023/10/18 06:05:21;;;;;;;19.47;8.67;;;;;;;1.64;100.00;101053.38;5011364;28;20483;-83
2023/10/18 06:07:50;;;;;;;13.63;6.90;;;;;;;1.63;100.00;101057.94;5009954;28;20441;-85
2023/10/18 06:10:23;;;;;;;12.48;6.32;;;;;;;1.73;100.00;101053.97;4991851;28;20423;-85
2023/10/18 06:12:56;;;;;;;11.07;6.03;;;;;;;1.75;100.00;101051.91;4995214;28;20448;-83
2023/10/18 06:15:34;;;;;;;11.50;5.70;;;;;;;1.80;100.00;101049.41;5008791;28;20419;-82
2023/10/18 06:18:09;;;;;;;10.77;5.32;;;;;;;1.73;100.00;101053.97;4991140;28;20433;-82
2023/10/18 06:20:41;;;;;;;11.48;5.43;;;;;;;1.69;100.00;101049.03;5008920;28;20422;-85
2023/10/18 06:25:57;;;;;;;10.55;5.85;;;;;;;1.73;100.00;101049.44;4989063;28;20417;-83
2023/10/18 06:28:26;;;;;;;11.48;6.25;;;;;;;1.70;100.00;101048.00;5007551;28;20422;-83
2023/10/18 06:30:59;;;;;;;15.38;8.05;;;;;;;1.70;100.00;101048.00;4995868;28;20443;-85
2023/10/18 06:33:36;;;;;;;15.02;8.13;;;;;;;1.78;100.00;101049.63;4987729;28;20426;-83
2023/10/18 06:36:13;;;;;;;13.15;8.00;;;;;;;1.80;100.00;101050.22;4990350;28;20430;-83
2023/10/18 06:38:46;;;;;;;15.13;7.35;;;;;;;1.84;100.00;101051.44;4994104;28;20942;-83
2023/10/18 06:41:21;;;;;;;14.30;6.82;;;;;;;1.87;100.00;101045.66;4990704;28;20437;-86
2023/10/18 06:43:50;;;;;;;11.05;6.18;;;;;;;1.98;100.00;101043.34;4989569;28;20430;-83
2023/10/18 06:46:26;;;;;;;14.05;5.50;;;;;;;2.00;100.00;101043.94;4991164;28;20442;-84
2023/10/18 06:48:57;;;;;;;10.77;5.32;;;;;;;2.08;100.00;101045.56;4992313;28;20787;-84
2023/10/18 06:51:33;;;;;;;8.95;4.88;;;;;;;2.08;100.00;101037.53;5006550;28;20418;-83
2023/10/18 06:54:04;;;;;;;12.13;5.57;;;;;;;2.14;100.00;101033.97;4997679;28;20437;-83
2023/10/18 06:56:39;;;;;;;9.18;5.40;;;;;;;2.21;100.00;101040.13;4992379;28;20410;-84
2023/10/18 06:59:07;;;;;;;12.20;6.10;;;;;;;2.21;100.00;101048.19;5002020;28;20420;-86
2023/10/18 07:01:53;;;;;;;9.27;5.25;;;;;;;2.20;100.00;101038.50;4993482;28;20422;-84
2023/10/18 07:04:35;;;;;;;9.27;4.97;;;;;;;2.27;100.00;101025.84;4988495;28;20449;-82
2023/10/18 07:07:11;;;;;;;9.35;4.65;;;;;;;2.38;100.00;101041.25;4985274;28;20430;-83
2023/10/18 07:09:45;;;;;;;10.18;4.88;;;;;;;2.41;100.00;101033.81;5001311;28;20437;-86
2023/10/18 07:12:17;;;;;;;9.37;4.87;;;;;;;2.47;100.00;101036.47;4987869;28;20442;-85
2023/10/18 07:14:45;;;;;;;10.32;5.53;;;;;;;2.58;100.00;101037.59;5004559;28;20457;-85
2023/10/18 07:17:23;;;;;;;9.93;4.97;;;;;;;2.66;100.00;101033.84;4990293;28;20429;-84
2023/10/18 07:19:58;;;;;;;10.93;5.35;;;;;;;2.73;100.00;101039.97;5001191;28;20931;-89
2023/10/18 07:22:41;;;;;;;11.18;5.20;;;;;;;2.77;100.00;101032.31;4987508;28;21212;-86
2023/10/18 07:25:19;;;;;;;10.75;5.45;;;;;;;2.85;100.00;101023.97;4983612;28;20429;-87
2023/10/18 07:27:55;;;;;;;8.50;4.25;;;;;;;2.66;100.00;101033.84;5004426;28;20434;-83
2023/10/18 07:30:37;;;;;;;8.35;3.80;;;;;;;2.58;100.00;101034.09;5002956;28;20442;-88
2023/10/18 07:33:12;;;;;;;9.00;4.25;;;;;;;2.57;100.00;101035.97;4956752;28;20423;-87
2023/10/18 07:35:45;;;;;;;9.93;4.30;;;;;;;2.51;100.00;101026.09;4973980;28;20438;-85
2023/10/18 07:38:25;;;;;;;11.88;4.95;;;;;;;2.49;100.00;101020.94;4976262;28;22263;-88
2023/10/18 07:41:00;;;;;;;11.63;4.93;;;;;;;2.47;100.00;101019.50;4970213;28;20529;-88
2023/10/18 07:43:33;;;;;;;10.57;5.03;;;;;;;2.52;100.00;101023.19;4959564;28;20434;-88
2023/10/18 07:46:09;;;;;;;9.70;4.68;;;;;;;2.60;100.00;101019.41;4984489;28;20438;-89
2023/10/18 07:48:45;;;;;;;8.73;4.63;;;;;;;2.57;100.00;101014.50;4964216;28;20442;-87
2023/10/18 07:51:25;;;;;;;9.77;5.23;;;;;;;2.70;100.00;101021.63;4960179;28;20434;-89
2023/10/18 07:53:55;;;;;;;10.35;4.93;;;;;;;2.78;100.00;101015.16;4983854;28;20437;-88
2023/10/18 07:56:27;;;;;;;11.75;5.40;;;;;;;2.85;100.00;101007.84;4970091;28;20430;-89
2023/10/18 07:59:27;;;;;;;9.52;4.93;;;;;;;2.94;100.00;101003.00;4968404;28;20435;-87
2023/10/18 08:01:51;;;;;;;12.10;5.33;;;;;;;3.01;100.00;101011.81;4960566;28;20446;-87
2023/10/18 08:04:20;;;;;;;13.10;5.70;;;;;;;3.09;100.00;101008.84;4960176;28;20434;-88
2023/10/18 08:07:00;;;;;;;12.77;5.55;;;;;;;3.14;100.00;100995.56;4968440;28;20441;-89
2023/10/18 08:09:32;;;;;;;11.97;5.97;;;;;;;3.19;100.00;100982.28;4984734;28;20434;-89
2023/10/18 08:12:07;;;;;;;9.10;4.85;;;;;;;3.28;100.00;100984.69;4973150;28;21096;-87
2023/10/18 08:14:37;;;;;;;10.75;5.25;;;;;;;3.34;100.00;100981.09;4973194;28;20433;-90
2023/10/18 08:17:22;;;;;;;12.80;5.30;;;;;;;3.41;100.00;100979.13;4983540;28;20442;-87
2023/10/18 08:20:17;;;;;;;10.70;5.35;;;;;;;3.46;100.00;100979.28;4976896;28;20806;-89
2023/10/18 08:22:47;;;;;;;11.00;5.80;;;;;;;3.55;100.00;100972.56;4979321;28;20430;-88
2023/10/18 08:28:01;;;;;;;11.88;6.22;;;;;;;3.72;100.00;100969.25;4986358;28;20937;-88
2023/10/18 08:31:02;;;;;;;10.85;5.85;;;;;;;3.76;100.00;100967.75;4983667;28;20453;-89
2023/10/18 08:33:27;;;;;;;10.77;5.10;;;;;;;3.90;100.00;100966.50;4958119;28;20403;-87
2023/10/18 08:36:08;;;;;;;9.27;5.00;;;;;;;3.93;100.00;100970.63;4975354;28;20438;-88
2023/10/18 08:38:42;;;;;;;12.40;4.95;;;;;;;3.95;100.00;100963.16;4958690;28;20442;-88
2023/10/18 08:41:15;;;;;;;10.02;5.18;;;;;;;4.03;100.00;100956.59;4986059;28;20427;-88
2023/10/18 08:44:09;;;;;;;13.27;5.32;;;;;;;4.10;100.00;100965.41;4959102;28;20442;-91
2023/10/18 08:46:51;;;;;;;11.90;6.30;;;;;;;4.20;100.00;100967.56;4983049;28;20441;-88
2023/10/18 08:49:23;;;;;;;11.20;5.28;;;;;;;4.29;100.00;100957.28;4971134;28;20445;-88
2023/10/18 08:52:04;;;;;;;10.73;5.55;;;;;;;4.43;100.00;100956.00;4962920;28;20434;-87
2023/10/18 08:54:41;;;;;;;11.02;5.40;;;;;;;4.58;100.00;100958.25;4972280;28;20415;-90
2023/10/18 08:57:11;;;;;;;11.85;5.10;;;;;;;4.63;100.00;100958.38;4991758;28;20481;-89
2023/10/18 08:59:47;;;;;;;10.07;4.97;;;;;;;4.75;100.00;100964.59;4972972;28;20430;-88
2023/10/18 09:02:18;;;;;;;9.85;5.00;;;;;;;4.86;100.00;100948.66;4976972;28;20453;-89
2023/10/18 09:04:48;;;;;;;10.07;5.00;;;;;;;4.95;100.00;100952.63;4969971;28;20441;-87
2023/10/18 09:07:20;;;;;;;12.60;5.70;;;;;;;5.42;100.00;100951.75;4984344;28;20437;-86
2023/10/18 09:09:57;;;;;;;9.50;4.70;;;;;;;5.52;100.00;100954.63;4983049;28;20441;-87
2023/10/18 09:12:37;;;;;;;8.80;4.20;;;;;;;6.13;100.00;100946.09;4962899;28;20434;-84
2023/10/18 09:17:55;;;;;;;10.13;4.43;;;;;;;5.82;100.00;100950.91;4958526;28;22111;-85
2023/10/18 09:20:29;;;;;;;8.38;3.70;;;;;;;6.07;100.00;100938.97;4963873;28;20442;-88
2023/10/18 09:23:01;;;;;;;11.65;4.10;;;;;;;6.07;100.00;100933.56;4965715;28;20434;-87
2023/10/18 09:25:47;;;;;;;12.30;4.15;;;;;;;5.98;100.00;100935.84;4983429;28;20418;-87
2023/10/18 09:28:20;;;;;;;9.55;4.00;;;;;;;6.27;100.00;100944.72;4970312;28;21102;-88
2023/10/18 09:30:49;;;;;;;9.63;3.80;;;;;;;6.51;100.00;100939.16;4961887;28;21265;-87
2023/10/18 09:33:17;;;;;;;7.22;3.58;;;;;;;6.50;100.00;100934.00;4942163;28;20423;-88
2023/10/18 09:35:48;;;;;;;7.97;3.88;;;;;;;6.23;100.00;100938.16;4963174;28;20664;-88
2023/10/18 09:38:18;;;;;;;9.20;4.20;;;;;;;6.20;100.00;100944.06;4963781;28;21304;-87
2023/10/18 09:40:48;;;;;;;8.80;4.13;;;;;;;6.59;100.00;100929.81;4976848;28;20430;-90
2023/10/18 09:43:21;;;;;;;7.60;4.07;;;;;;;6.33;100.00;100932.09;4971336;28;20433;-90
2023/10/18 09:45:50;;;;;;;10.38;4.10;;;;;;;6.89;100.00;100928.63;4959769;28;20434;-88
2023/10/18 09:48:19;;;;;;;10.18;4.35;;;;;;;6.92;100.00;100931.66;4972741;28;20815;-85
2023/10/18 09:50:49;;;;;;;8.52;3.78;;;;;;;7.17;100.00;100933.06;4968265;28;20423;-84
2023/10/18 09:53:26;;;;;;;6.97;3.40;;;;;;;7.21;100.00;100926.09;4963803;28;20434;-87
2023/10/18 09:55:55;;;;;;;7.60;3.72;;;;;;;6.89;100.00;100931.31;4977379;28;20445;-86
2023/10/18 09:58:25;;;;;;;9.48;3.72;;;;;;;7.25;100.00;100929.09;4967925;28;21065;-86
2023/10/18 10:00:56;;;;;;;8.60;3.45;;;;;;;6.89;100.00;100925.91;4959160;28;20434;-86
2023/10/18 10:03:26;;;;;;;8.07;3.70;;;;;;;7.14;100.00;100920.84;4960515;28;20534;-85
2023/10/18 10:05:57;;;;;;;9.55;3.28;;;;;;;7.05;100.00;100916.94;4972734;28;20445;-83
2023/10/18 10:08:30;;;;;;;7.45;3.60;;;;;;;7.34;100.00;100915.97;4988837;28;20799;-84
2023/10/18 10:11:13;;;;;;;9.00;3.45;;;;;;;7.61;100.00;100907.84;4995627;28;20435;-85
2023/10/18 10:13:44;;;;;;;8.95;3.15;;;;;;;7.74;100.00;100907.47;4988353;28;20446;-83
2023/10/18 10:16:22;;;;;;;10.00;3.78;;;;;;;7.37;100.00;100901.91;5002543;28;20795;-84
2023/10/18 10:19:04;;;;;;;7.32;3.20;;;;;;;7.38;100.00;100904.38;4992213;28;20429;-85
2023/10/18 10:21:38;;;;;;;7.25;3.20;;;;;;;7.65;100.00;100895.44;5007186;28;20419;-83
2023/10/18 10:24:14;;;;;;;7.93;3.13;;;;;;;7.54;100.00;100896.41;5004913;28;20775;-87
2023/10/18 10:26:48;;;;;;;8.02;3.40;;;;;;;7.40;100.00;100891.41;4998508;28;20931;-85
2023/10/18 10:29:34;;;;;;;7.72;3.00;;;;;;;7.65;100.00;100890.84;4989405;28;20884;-86
2023/10/18 10:32:23;;;;;;;7.97;2.90;;;;;;;7.64;100.00;100883.00;5014654;28;20438;-86
2023/10/18 10:35:15;;;;;;;8.65;3.50;;;;;;;7.45;100.00;100882.50;5008977;28;20422;-88
2023/10/18 10:38:09;;;;;;;6.88;3.42;;;;;;;7.35;100.00;100875.09;4997440;28;20437;-86
2023/10/18 10:40:43;;;;;;;7.85;3.67;;;;;;;7.37;100.00;100869.41;4986174;28;20435;-89
2023/10/18 10:43:18;;;;;;;8.00;3.53;;;;;;;7.60;100.00;100865.63;5013582;28;20418;-84
2023/10/18 10:45:57;;;;;;;8.40;3.55;;;;;;;7.78;100.00;100867.16;4982580;28;20410;-84
2023/10/18 10:48:45;;;;;;;8.70;3.10;;;;;;;7.90;100.00;100870.50;5008057;28;20477;-85
2023/10/18 10:51:20;;;;;;;6.82;3.00;;;;;;;8.11;100.00;100862.56;5007697;28;20783;-83
2023/10/18 10:53:58;;;;;;;9.95;3.30;;;;;;;8.12;100.00;100856.88;4993748;28;20430;-86
2023/10/18 10:56:48;;;;;;;10.05;3.17;;;;;;;8.25;100.00;100857.50;5006741;28;20430;-84
2023/10/18 10:59:28;;;;;;;10.07;3.50;;;;;;;8.09;100.00;100848.44;5007322;28;20427;-84
2023/10/18 11:02:39;;;;;;;7.32;3.63;;;;;;;8.00;100.00;100843.47;5007796;28;20426;-87
2023/10/18 11:05:16;;;;;;;9.88;3.80;;;;;;;8.50;100.00;100841.44;4992996;28;21118;-83
2023/10/18 11:07:45;;;;;;;8.75;3.90;;;;;;;8.26;100.00;100834.72;4990925;28;20442;-88
2023/10/18 11:10:15;;;;;;;8.70;4.13;;;;;;;8.52;100.00;100824.91;4990495;28;20783;-87
2023/10/18 11:12:48;;;;;;;9.07;3.80;;;;;;;8.65;100.00;100837.19;4985659;28;20436;-84
2023/10/18 11:15:30;;;;;;;9.88;3.55;;;;;;;8.78;100.00;100828.59;4992007;28;21080;-83
2023/10/18 11:18:19;;;;;;;9.07;3.78;;;;;;;8.45;100.00;100817.00;4996460;28;20430;-88
2023/10/18 11:21:12;;;;;;;8.48;3.42;;;;;;;8.36;100.00;100821.25;5008309;28;20430;-86
2023/10/18 11:23:46;;;;;;;9.00;2.93;;;;;;;8.63;100.00;100825.75;4989712;28;20991;-86
2023/10/18 11:26:23;;;;;;;6.28;2.72;;;;;;;8.91;100.00;100813.69;4989982;28;20422;-85
2023/10/18 11:28:59;;;;;;;5.40;2.20;;;;;;;8.46;100.00;100806.97;5005944;28;20410;-87
2023/10/18 11:31:30;;;;;;;6.27;2.33;;;;;;;8.51;100.00;100810.50;4990717;28;20430;-86
2023/10/18 11:34:14;;;;;;;4.80;2.25;;;;;;;8.63;100.00;100810.31;4988979;28;23180;-87
2023/10/18 11:36:43;;;;;;;6.22;2.30;;;;;;;8.46;100.00;100799.63;4990122;28;20435;-87
2023/10/18 11:39:21;;;;;;;5.85;2.38;;;;;;;8.23;100.00;100802.72;4984015;28;20453;-85
2023/10/18 11:41:49;;;;;;;7.55;2.38;;;;;;;8.55;100.00;100789.13;4990912;28;20417;-86
2023/10/18 11:44:31;;;;;;;4.13;2.00;;;;;;;8.75;100.00;100788.38;4983925;28;20447;-87
2023/10/18 11:47:18;;;;;;;5.40;1.95;;;;;;;8.58;100.00;100785.06;5006547;28;20427;-84
2023/10/18 11:49:52;;;;;;;6.97;2.40;;;;;;;8.81;100.00;100787.34;5003070;28;20439;-85
2023/10/18 11:52:27;;;;;;;6.32;2.53;;;;;;;8.54;100.00;100778.53;5003019;28;20426;-89
2023/10/18 11:55:09;;;;;;;5.38;2.20;;;;;;;8.46;100.00;100772.50;4965273;28;20441;-86
2023/10/18 11:57:40;;;;;;;3.80;1.83;;;;;;;8.56;100.00;100768.22;4961751;28;20437;-90
2023/10/18 12:03:01;;;;;;;5.80;2.50;;;;;;;8.86;100.00;100759.41;4970135;28;20819;-87
2023/10/18 12:05:36;;;;;;;6.05;2.50;;;;;;;8.53;100.00;100752.50;4977754;28;20438;-90
2023/10/18 12:08:12;;;;;;;6.30;2.60;;;;;;;8.63;100.00;100749.81;4970846;28;20430;-87
2023/10/18 12:10:40;;;;;;;8.52;2.80;;;;;;;8.56;100.00;100755.50;4989216;28;20438;-89